Time;durP1;ratioP1;P1;durP2;ratioP2;P2;SDS_P1;SDS_P2;PMS_P1;PMS_P2;Temp;Humidity;BMP_temperature;BMP_pressure;BME280_temperature;BME280_humidity;BME280_pressure;Samples;Min_cycle;Max_cycle;Signal;HPM_P1;HPM_P2
2024/03/15 00:03:40;;;;;;;16.25;11.80;;;;;;;12.36;73.53;99676.66;10266797;28;20142;-80
2024/03/15 00:08:43;;;;;;;13.40;10.52;;;;;;;12.34;73.46;99666.03;10279039;28;20079;-80
2024/03/15 00:13:46;;;;;;;12.95;11.35;;;;;;;12.33;73.88;99658.09;10275078;28;20046;-80
2024/03/15 00:18:49;;;;;;;12.90;10.63;;;;;;;12.33;73.71;99663.50;10277295;28;20074;-80
2024/03/15 00:23:52;;;;;;;12.13;10.38;;;;;;;12.27;74.12;99661.38;10272807;28;20509;-80
2024/03/15 00:28:55;;;;;;;18.75;12.55;;;;;;;12.30;74.15;99656.56;10271238;28;20061;-81
2024/03/15 00:33:58;;;;;;;17.70;11.80;;;;;;;12.29;73.98;99652.19;10273754;28;20039;-80
2024/03/15 00:39:02;;;;;;;16.58;11.52;;;;;;;12.22;74.46;99650.22;10252873;28;20055;-81
2024/03/15 00:44:06;;;;;;;13.07;10.68;;;;;;;12.17;74.75;99650.66;10259568;28;20046;-80
2024/03/15 00:49:10;;;;;;;12.75;10.50;;;;;;;12.09;75.38;99637.13;10265423;28;20129;-80
2024/03/15 00:54:13;;;;;;;13.93;10.63;;;;;;;12.00;76.24;99646.13;10268258;28;20056;-79
2024/03/15 00:59:17;;;;;;;14.73;11.10;;;;;;;12.05;76.08;99644.66;10267023;28;20054;-80
2024/03/15 01:04:20;;;;;;;12.80;10.13;;;;;;;12.08;76.02;99647.06;10257399;28;20134;-80
2024/03/15 01:09:24;;;;;;;15.45;11.18;;;;;;;12.09;76.22;99635.28;10275339;28;20050;-80
2024/03/15 01:14:28;;;;;;;15.02;10.70;;;;;;;12.05;76.46;99644.66;10273601;28;20043;-79
2024/03/15 01:19:33;;;;;;;15.18;10.88;;;;;;;12.05;76.71;99641.97;10271613;28;20074;-80
2024/03/15 01:24:36;;;;;;;16.00;10.75;;;;;;;12.12;76.52;99636.81;10277113;28;20054;-80
2024/03/15 01:29:39;;;;;;;14.15;10.82;;;;;;;12.15;76.12;99629.31;10279907;28;20074;-79
2024/03/15 01:34:42;;;;;;;16.67;11.15;;;;;;;12.09;76.61;99629.88;10266634;28;20042;-80
2024/03/15 01:39:47;;;;;;;11.50;10.07;;;;;;;12.09;76.40;99611.03;10259529;28;20041;-80
2024/03/15 01:44:51;;;;;;;12.00;10.07;;;;;;;12.07;76.63;99620.31;10281221;28;20043;-80
2024/03/15 01:49:55;;;;;;;14.98;10.70;;;;;;;12.00;77.05;99616.50;10278989;28;20110;-80
2024/03/15 01:54:58;;;;;;;12.25;10.32;;;;;;;11.97;77.07;99606.06;10281536;28;20042;-79
2024/03/15 02:00:02;;;;;;;13.90;10.27;;;;;;;11.98;77.31;99605.03;10274337;28;20498;-80
2024/03/15 02:05:10;;;;;;;14.75;9.52;;;;;;;11.98;77.34;99605.88;10270239;28;20054;-80
2024/03/15 02:10:14;;;;;;;12.35;9.80;;;;;;;12.01;77.10;99602.03;10263916;28;20130;-80
2024/03/15 02:15:17;;;;;;;12.50;9.35;;;;;;;12.01;76.95;99596.66;10271824;28;20050;-80
2024/03/15 02:20:22;;;;;;;13.50;9.93;;;;;;;11.96;77.17;99602.53;10265718;28;20047;-80
2024/03/15 02:25:25;;;;;;;12.02;8.68;;;;;;;11.95;77.07;99600.81;10276781;28;20042;-80
2024/03/15 02:30:28;;;;;;;12.88;9.65;;;;;;;12.01;77.15;99591.28;10283851;28;20186;-80
2024/03/15 02:35:32;;;;;;;12.27;9.68;;;;;;;12.00;76.91;99593.13;10270046;28;20074;-79
2024/03/15 02:40:36;;;;;;;13.13;8.88;;;;;;;12.07;76.64;99586.16;10262151;28;20057;-79
2024/03/15 02:45:39;;;;;;;11.25;9.00;;;;;;;12.07;76.66;99588.84;10280425;28;20049;-79
2024/03/15 02:50:42;;;;;;;10.13;8.43;;;;;;;12.01;76.97;99586.75;10265465;28;20061;-80
2024/03/15 02:55:45;;;;;;;11.48;8.93;;;;;;;12.06;76.47;99587.13;10271392;28;20050;-80
2024/03/15 03:00:48;;;;;;;11.07;8.60;;;;;;;11.99;76.65;99594.16;10274578;28;20051;-80
2024/03/15 03:05:52;;;;;;;12.40;8.55;;;;;;;11.90;77.11;99586.97;10288662;28;20054;-79
2024/03/15 03:10:55;;;;;;;12.07;7.70;;;;;;;11.79;77.57;99584.50;10301692;28;20660;-79
2024/03/15 03:15:58;;;;;;;9.77;7.85;;;;;;;11.80;77.63;99580.81;10274565;28;20090;-79
2024/03/15 03:21:01;;;;;;;12.35;8.25;;;;;;;11.79;77.38;99592.56;10280109;28;20049;-80
2024/03/15 03:26:04;;;;;;;10.07;8.07;;;;;;;11.72;77.82;99587.78;10274452;28;20043;-80
2024/03/15 03:31:07;;;;;;;14.27;7.57;;;;;;;11.78;77.53;99593.56;10266271;28;20591;-80
2024/03/15 03:36:11;;;;;;;10.70;8.15;;;;;;;11.82;77.33;99589.56;10280485;28;20482;-80
2024/03/15 03:41:14;;;;;;;12.00;8.38;;;;;;;11.85;77.30;99589.28;10277235;28;20058;-80
2024/03/15 03:46:18;;;;;;;13.18;7.65;;;;;;;11.87;76.85;99582.72;10281262;28;20117;-80
2024/03/15 03:51:21;;;;;;;12.32;7.85;;;;;;;11.87;76.86;99571.13;10280287;28;20073;-80
2024/03/15 03:56:24;;;;;;;10.75;7.30;;;;;;;11.83;77.09;99581.34;10255047;28;20050;-80
2024/03/15 04:01:27;;;;;;;10.25;7.45;;;;;;;11.82;77.12;99585.06;10274985;28;20744;-80
2024/03/15 04:06:30;;;;;;;7.07;6.20;;;;;;;11.74;77.53;99576.91;10279347;28;20133;-80
2024/03/15 04:11:34;;;;;;;11.95;6.93;;;;;;;11.77;77.78;99573.06;10271438;28;20043;-80
2024/03/15 04:16:37;;;;;;;10.13;6.63;;;;;;;11.72;77.91;99578.88;10270508;28;20047;-81
2024/03/15 04:21:42;;;;;;;10.63;6.68;;;;;;;11.82;77.44;99571.59;10261224;28;20085;-80
2024/03/15 04:26:46;;;;;;;9.20;6.65;;;;;;;11.78;77.79;99580.97;10273047;28;20043;-79
2024/03/15 04:31:51;;;;;;;9.05;6.13;;;;;;;11.72;77.82;99579.72;10268548;28;20038;-80
2024/03/15 04:36:54;;;;;;;7.88;6.53;;;;;;;11.84;77.28;99566.06;10255242;28;20065;-80
2024/03/15 04:41:57;;;;;;;9.55;6.75;;;;;;;11.79;77.38;99568.34;10255580;28;20133;-80
2024/03/15 04:47:01;;;;;;;7.20;5.45;;;;;;;11.77;77.54;99565.81;10261971;28;20047;-79
2024/03/15 04:52:04;;;;;;;9.00;6.40;;;;;;;11.74;77.59;99574.22;10273489;28;20039;-81
2024/03/15 04:57:08;;;;;;;10.57;5.90;;;;;;;11.74;77.36;99571.53;10278040;28;20047;-81
2024/03/15 05:02:11;;;;;;;9.25;6.38;;;;;;;11.76;77.44;99552.53;10276018;28;20133;-81
2024/03/15 05:07:15;;;;;;;7.68;5.65;;;;;;;11.75;77.41;99558.91;10262576;28;20047;-81
2024/03/15 05:12:18;;;;;;;9.82;5.47;;;;;;;11.76;77.20;99561.44;10256445;28;20047;-81
2024/03/15 05:17:21;;;;;;;6.97;5.35;;;;;;;11.81;77.07;99558.28;10256981;28;20051;-79
2024/03/15 05:22:24;;;;;;;9.07;6.40;;;;;;;11.81;76.97;99555.59;10290131;28;20066;-80
2024/03/15 05:27:28;;;;;;;7.43;5.28;;;;;;;11.75;77.21;99542.75;10258266;28;20795;-81
2024/03/15 05:32:32;;;;;;;11.30;5.78;;;;;;;11.69;77.93;99553.13;10279119;28;20485;-81
2024/03/15 05:37:35;;;;;;;9.95;5.60;;;;;;;11.69;77.59;99546.91;10260022;28;20122;-81
2024/03/15 05:42:38;;;;;;;9.23;5.07;;;;;;;11.69;77.51;99546.91;10285263;28;20054;-80
2024/03/15 05:47:41;;;;;;;9.95;5.82;;;;;;;11.77;77.00;99548.84;10261637;28;20063;-81
2024/03/15 05:52:45;;;;;;;9.18;5.50;;;;;;;11.78;77.13;99550.53;10260863;28;20054;-81
2024/03/15 05:57:48;;;;;;;5.82;3.78;;;;;;;11.56;77.74;99566.09;10272763;28;20156;-81
2024/03/15 06:02:52;;;;;;;7.72;4.90;;;;;;;11.60;78.05;99554.06;10258728;28;20051;-80
2024/03/15 06:07:55;;;;;;;6.85;4.60;;;;;;;11.73;77.34;99549.13;10248488;28;20054;-81
2024/03/15 06:12:58;;;;;;;4.40;3.03;;;;;;;11.58;77.69;99561.41;10260592;28;20054;-80
2024/03/15 06:18:01;;;;;;;10.82;4.70;;;;;;;11.92;76.55;99560.75;10264392;28;20094;-80
2024/03/15 06:23:04;;;;;;;4.47;3.15;;;;;;;11.63;77.42;99574.44;10272615;28;20038;-78
2024/03/15 06:28:09;;;;;;;7.45;4.13;;;;;;;11.70;77.56;99570.13;10260726;28;20126;-78
2024/03/15 06:33:13;;;;;;;8.68;4.38;;;;;;;11.68;77.53;99564.91;10284645;28;20578;-78
2024/03/15 06:38:27;;;;;;;6.18;4.40;;;;;;;11.85;76.61;99567.78;10285277;28;20074;-79
2024/03/15 06:43:41;;;;;;;6.50;4.50;;;;;;;11.85;76.54;99576.69;10269318;28;20043;-79
2024/03/15 06:48:55;;;;;;;8.23;4.47;;;;;;;11.65;77.84;99592.06;10284429;28;20421;-80
2024/03/15 06:53:58;;;;;;;8.65;4.85;;;;;;;11.81;77.29;99580.66;10283792;28;20510;-80
2024/03/15 06:59:01;;;;;;;6.60;4.35;;;;;;;12.17;75.14;99586.91;10267881;28;20055;-79
2024/03/15 07:04:07;;;;;;;10.48;4.28;;;;;;;12.52;73.57;99587.06;10265391;28;20047;-80
2024/03/15 07:09:14;;;;;;;5.43;4.05;;;;;;;12.09;75.28;99575.22;10274331;28;20038;-80
2024/03/15 07:14:18;;;;;;;6.13;4.20;;;;;;;12.07;76.20;99588.00;10269110;28;20541;-79
2024/03/15 07:19:21;;;;;;;7.10;4.47;;;;;;;12.27;75.06;99592.22;10285529;28;20133;-80
2024/03/15 07:24:28;;;;;;;7.20;4.20;;;;;;;12.30;75.41;99599.19;10280855;28;20122;-80
2024/03/15 07:29:31;;;;;;;5.88;3.97;;;;;;;12.44;74.43;99597.78;10282979;28;20035;-80
2024/03/15 07:34:34;;;;;;;6.68;4.15;;;;;;;12.60;73.38;99616.78;10275394;28;20061;-80
2024/03/15 07:39:37;;;;;;;3.47;2.55;;;;;;;12.24;75.18;99607.84;10295734;28;20035;-80
2024/03/15 07:44:40;;;;;;;8.05;4.40;;;;;;;12.10;80.46;99617.31;10269823;28;20054;-80
2024/03/15 07:49:43;;;;;;;8.18;4.38;;;;;;;11.72;82.33;99622.78;10274060;28;20057;-80
2024/03/15 07:54:46;;;;;;;8.95;3.80;;;;;;;11.83;81.47;99632.47;10254196;28;20050;-80
2024/03/15 07:59:49;;;;;;;8.85;5.13;;;;;;;11.88;82.08;99627.50;10263413;28;20054;-79
2024/03/15 08:04:53;;;;;;;7.82;4.63;;;;;;;11.88;86.11;99649.03;10253142;28;20653;-80
2024/03/15 08:09:56;;;;;;;9.40;5.53;;;;;;;11.17;100.00;99641.56;10274808;28;20533;-80
2024/03/15 08:14:59;;;;;;;8.80;5.40;;;;;;;10.95;100.00;99634.66;10272446;28;20042;-81
2024/03/15 08:20:05;;;;;;;10.10;6.95;;;;;;;11.18;100.00;99635.19;10260016;28;20220;-80
2024/03/15 08:25:09;;;;;;;10.25;6.72;;;;;;;11.76;100.00;99635.91;10241967;28;20046;-80
2024/03/15 08:30:14;;;;;;;9.48;6.72;;;;;;;11.48;100.00;99636.75;10230008;28;20671;-81
2024/03/15 08:35:17;;;;;;;14.43;6.43;;;;;;;11.54;100.00;99647.91;10235195;28;20097;-80
2024/03/15 08:40:20;;;;;;;9.65;6.68;;;;;;;11.75;100.00;99637.78;10216311;28;20046;-81
2024/03/15 08:45:24;;;;;;;13.90;5.93;;;;;;;11.67;100.00;99646.59;10230279;28;20165;-81
2024/03/15 08:50:32;;;;;;;12.40;6.90;;;;;;;11.99;100.00;99647.13;10227886;28;20074;-80
2024/03/15 08:55:38;;;;;;;10.32;6.45;;;;;;;11.92;97.40;99650.41;10240805;28;20051;-80
2024/03/15 09:00:42;;;;;;;9.52;6.15;;;;;;;11.77;96.76;99637.63;10240903;28;20067;-80
2024/03/15 09:05:46;;;;;;;9.18;5.53;;;;;;;12.09;95.54;99646.03;10240424;28;20058;-80
2024/03/15 09:10:49;;;;;;;7.90;5.70;;;;;;;12.01;94.30;99654.03;10227051;28;20070;-80
2024/03/15 09:15:55;;;;;;;12.15;5.90;;;;;;;12.38;92.51;99639.66;10239121;28;20066;-81
2024/03/15 09:20:58;;;;;;;11.40;5.28;;;;;;;12.53;91.80;99648.88;10244391;28;20111;-80
2024/03/15 09:26:02;;;;;;;8.18;5.38;;;;;;;13.53;85.19;99644.03;10234462;28;20057;-80
2024/03/15 09:31:08;;;;;;;6.68;4.32;;;;;;;13.04;83.89;99655.31;10234428;28;20050;-80
2024/03/15 09:36:32;;;;;;;5.65;3.92;;;;;;;12.79;84.77;99661.56;10242434;28;20038;-80
2024/03/15 09:41:35;;;;;;;9.60;5.38;;;;;;;12.69;84.93;99661.63;10234669;28;20532;-80
2024/03/15 09:46:38;;;;;;;11.00;6.05;;;;;;;12.66;86.68;99672.72;10222484;28;20065;-79
2024/03/15 09:51:42;;;;;;;10.77;5.68;;;;;;;12.76;86.78;99667.25;10209730;28;20038;-81
2024/03/15 09:56:45;;;;;;;10.15;6.90;;;;;;;12.95;85.53;99671.63;10238085;28;20118;-81
2024/03/15 10:01:49;;;;;;;13.40;8.20;;;;;;;13.01;85.14;99666.44;10218308;28;20063;-81
2024/03/15 10:06:52;;;;;;;9.95;6.82;;;;;;;13.27;83.59;99668.28;10222769;28;20128;-81
2024/03/15 10:11:55;;;;;;;14.02;7.18;;;;;;;13.48;81.37;99666.06;10243894;28;20059;-83
2024/03/15 10:16:58;;;;;;;10.95;5.88;;;;;;;13.41;80.60;99681.22;10244775;28;20046;-80
2024/03/15 10:22:07;;;;;;;11.82;7.60;;;;;;;13.46;81.29;99673.47;10227942;28;20051;-81
2024/03/15 10:27:12;;;;;;;8.88;6.35;;;;;;;13.43;80.33;99683.75;10228245;28;20047;-82
2024/03/15 10:32:16;;;;;;;9.70;5.57;;;;;;;13.63;78.29;99676.25;10249692;28;20085;-83
2024/03/15 10:37:21;;;;;;;9.25;6.90;;;;;;;13.82;78.07;99675.16;10258332;28;21138;-83
2024/03/15 10:42:24;;;;;;;9.63;6.75;;;;;;;14.00;78.24;99675.06;10238639;28;20047;-82
2024/03/15 10:47:28;;;;;;;11.40;6.55;;;;;;;14.18;75.62;99673.09;10249527;28;20437;-80
2024/03/15 10:52:31;;;;;;;9.40;6.40;;;;;;;14.20;74.84;99656.72;10232798;28;20132;-82
2024/03/15 10:57:34;;;;;;;7.88;5.47;;;;;;;14.35;72.65;99672.13;10252570;28;20130;-82
2024/03/15 11:02:38;;;;;;;7.63;5.85;;;;;;;14.52;72.30;99661.38;10255094;28;20050;-82
2024/03/15 11:07:41;;;;;;;8.55;5.15;;;;;;;14.13;72.74;99676.28;10236372;28;20047;-82
2024/03/15 11:12:44;;;;;;;7.20;5.82;;;;;;;14.58;72.15;99666.94;10234400;28;20074;-82
2024/03/15 11:17:57;;;;;;;6.45;5.38;;;;;;;14.76;70.33;99664.09;10226904;28;20222;-82
2024/03/15 11:23:00;;;;;;;6.57;3.53;;;;;;;14.64;70.60;99668.13;10229338;28;20043;-81
2024/03/15 11:28:04;;;;;;;7.40;4.82;;;;;;;14.32;72.88;99664.34;10253558;28;20062;-80
2024/03/15 11:33:07;;;;;;;7.63;5.00;;;;;;;14.56;72.22;99658.19;10241993;28;20063;-79
2024/03/15 11:38:12;;;;;;;9.00;4.95;;;;;;;13.91;74.84;99680.44;10245437;28;20181;-80
2024/03/15 11:43:15;;;;;;;6.63;4.68;;;;;;;14.07;74.92;99666.16;10253125;28;20053;-81
2024/03/15 11:48:19;;;;;;;6.82;4.93;;;;;;;14.76;71.52;99650.56;10242287;28;20066;-82
2024/03/15 11:53:23;;;;;;;5.55;4.05;;;;;;;14.99;71.20;99663.41;10253872;28;20047;-82
2024/03/15 11:58:26;;;;;;;6.45;4.40;;;;;;;14.30;72.69;99696.09;10247464;28;20052;-82
2024/03/15 12:03:31;;;;;;;4.22;3.83;;;;;;;14.25;73.13;99668.72;10238959;28;20694;-82
2024/03/15 12:08:34;;;;;;;5.28;4.13;;;;;;;13.83;74.44;99653.41;10258357;28;20062;-81
2024/03/15 12:13:37;;;;;;;6.80;4.30;;;;;;;13.83;74.06;99644.47;10278052;28;20057;-82
2024/03/15 12:18:40;;;;;;;5.95;3.63;;;;;;;14.23;70.95;99651.81;10234946;28;20051;-82
2024/03/15 12:23:43;;;;;;;9.25;4.93;;;;;;;14.19;70.29;99661.28;10241508;28;20133;-82
2024/03/15 12:28:47;;;;;;;7.93;5.05;;;;;;;14.36;70.14;99645.94;10245688;28;20053;-82
2024/03/15 12:33:51;;;;;;;6.00;3.50;;;;;;;14.58;67.83;99639.91;10247010;28;20047;-82
2024/03/15 12:38:54;;;;;;;7.05;4.63;;;;;;;14.56;68.00;99638.38;10237713;28;21192;-82
2024/03/15 12:43:58;;;;;;;6.40;4.20;;;;;;;14.05;70.88;99646.56;10238019;28;20057;-81
2024/03/15 12:49:01;;;;;;;8.35;5.05;;;;;;;14.28;71.95;99637.84;10255225;28;20061;-82
2024/03/15 12:54:04;;;;;;;8.25;5.35;;;;;;;14.98;66.33;99624.69;10247533;28;20189;-80
2024/03/15 12:59:07;;;;;;;7.53;5.10;;;;;;;15.57;65.79;99627.09;10232632;28;20050;-81
2024/03/15 13:04:10;;;;;;;6.28;5.10;;;;;;;15.08;67.98;99626.34;10247772;28;20043;-82
2024/03/15 13:09:13;;;;;;;7.32;5.60;;;;;;;15.47;67.43;99618.34;10246208;28;20055;-82
2024/03/15 13:14:16;;;;;;;13.30;4.93;;;;;;;15.17;66.85;99615.38;10222866;28;20241;-81
2024/03/15 13:19:19;;;;;;;10.38;5.03;;;;;;;15.01;67.98;99607.28;10240496;28;20042;-82
2024/03/15 13:24:23;;;;;;;7.20;3.97;;;;;;;14.72;66.36;99614.06;10247208;28;20047;-81
2024/03/15 13:29:26;;;;;;;5.53;4.03;;;;;;;15.06;66.81;99615.72;10246446;28;20057;-81
2024/03/15 13:34:29;;;;;;;5.07;3.33;;;;;;;14.75;64.59;99611.03;10221376;28;20063;-81
2024/03/15 13:39:32;;;;;;;3.78;2.67;;;;;;;14.40;67.44;99614.06;10231250;28;20054;-81
2024/03/15 13:44:36;;;;;;;5.70;3.55;;;;;;;14.84;65.87;99601.06;10234998;28;20044;-81
2024/03/15 13:49:39;;;;;;;5.35;3.20;;;;;;;14.91;64.87;99601.22;10238014;28;20043;-81
2024/03/15 13:54:42;;;;;;;7.30;3.40;;;;;;;16.45;59.44;99596.13;10232821;28;20069;-81
2024/03/15 13:59:45;;;;;;;6.65;3.65;;;;;;;15.59;61.87;99600.69;10238101;28;20055;-81
2024/03/15 14:04:48;;;;;;;5.15;3.05;;;;;;;15.56;62.91;99592.94;10248614;28;20051;-81
2024/03/15 14:09:53;;;;;;;6.18;3.15;;;;;;;15.67;62.23;99587.13;10225347;28;20047;-80
2024/03/15 14:14:56;;;;;;;5.57;2.50;;;;;;;15.16;63.04;99585.78;10237389;28;20140;-81
2024/03/15 14:19:59;;;;;;;6.53;3.03;;;;;;;15.37;61.22;99588.78;10241780;28;20050;-80
2024/03/15 14:25:04;;;;;;;7.93;3.20;;;;;;;15.27;61.73;99577.28;10220622;28;20581;-81
2024/03/15 14:30:09;;;;;;;3.08;2.35;;;;;;;15.43;61.15;99565.59;10246683;28;20517;-81
2024/03/15 14:35:13;;;;;;;3.55;2.30;;;;;;;15.55;59.95;99569.59;10247069;28;20074;-81
2024/03/15 14:40:18;;;;;;;3.45;2.03;;;;;;;15.54;59.54;99573.31;10230491;28;20578;-81
2024/03/15 14:45:22;;;;;;;2.80;2.20;;;;;;;15.80;59.82;99555.94;10218086;28;20061;-81
2024/03/15 14:50:26;;;;;;;3.90;2.30;;;;;;;15.88;59.05;99555.88;10252812;28;20042;-81
2024/03/15 14:55:33;;;;;;;2.67;2.13;;;;;;;15.39;59.66;99542.63;10223854;28;20047;-82
2024/03/15 15:00:36;;;;;;;3.30;2.45;;;;;;;15.18;67.24;99551.28;10227375;28;20066;-80
2024/03/15 15:05:39;;;;;;;5.82;2.75;;;;;;;13.33;88.35;99557.06;10255768;28;20069;-83
2024/03/15 15:10:43;;;;;;;7.55;2.95;;;;;;;12.48;100.00;99556.91;10243976;28;20109;-81
2024/03/15 15:15:46;;;;;;;4.30;2.45;;;;;;;12.15;100.00;99556.63;10253122;28;20381;-81
2024/03/15 15:20:50;;;;;;;2.70;2.10;;;;;;;12.10;97.41;99561.63;10247447;28;20049;-80
2024/03/15 15:25:53;;;;;;;2.90;1.73;;;;;;;12.25;91.37;99552.97;10236381;28;20825;-81
2024/03/15 15:30:58;;;;;;;5.68;1.98;;;;;;;12.76;87.39;99559.47;10256722;28;20059;-81
2024/03/15 15:36:01;;;;;;;4.75;2.30;;;;;;;13.15;84.04;99559.84;10242892;28;20136;-80
2024/03/15 15:41:04;;;;;;;4.32;2.20;;;;;;;12.84;89.21;99570.31;10250007;28;20053;-82
2024/03/15 15:46:10;;;;;;;3.47;2.70;;;;;;;12.44;97.08;99562.75;10233369;28;20058;-81
2024/03/15 15:51:14;;;;;;;4.35;3.20;;;;;;;12.58;95.30;99568.41;10235088;28;20059;-80
2024/03/15 15:56:18;;;;;;;2.63;1.70;;;;;;;12.64;86.42;99574.19;10226257;28;20130;-81
2024/03/15 16:01:21;;;;;;;3.53;1.67;;;;;;;12.35;87.89;99611.16;10239047;28;20046;-80
2024/03/15 16:06:24;;;;;;;6.50;1.38;;;;;;;13.18;82.53;99599.13;10267304;28;20057;-80
2024/03/15 16:11:27;;;;;;;1.88;1.17;;;;;;;13.59;77.99;99594.78;10242858;28;20066;-80
2024/03/15 16:16:31;;;;;;;2.25;0.77;;;;;;;13.25;78.10;99602.88;10222270;28;20046;-80
2024/03/15 16:21:34;;;;;;;1.65;0.70;;;;;;;13.10;76.09;99604.47;10234097;28;20057;-80
2024/03/15 16:26:37;;;;;;;2.08;0.90;;;;;;;13.50;74.53;99593.09;10252073;28;20050;-81
2024/03/15 16:31:41;;;;;;;3.08;1.10;;;;;;;13.14;74.11;99595.06;10250191;28;20046;-81
2024/03/15 16:36:44;;;;;;;2.10;0.90;;;;;;;13.15;74.20;99599.47;10226696;28;20062;-82
2024/03/15 16:41:48;;;;;;;1.45;1.25;;;;;;;13.02;75.69;99605.25;10231538;28;20051;-81
2024/03/15 16:46:51;;;;;;;2.00;0.90;;;;;;;13.20;75.31;99627.63;10237946;28;20051;-83
2024/03/15 16:51:54;;;;;;;2.03;1.00;;;;;;;12.55;82.56;99636.09;10230859;28;20421;-84
2024/03/15 16:56:57;;;;;;;1.65;1.00;;;;;;;11.91;92.46;99655.97;10228659;28;20054;-81
2024/03/15 17:02:05;;;;;;;3.72;0.70;;;;;;;10.79;96.52;99656.75;10246103;28;20047;-82
2024/03/15 17:07:09;;;;;;;0.98;0.60;;;;;;;10.73;100.00;99677.97;10234470;28;20050;-80
2024/03/15 17:12:14;;;;;;;0.90;0.90;;;;;;;10.25;100.00;99682.31;10220411;28;20125;-81
2024/03/15 17:17:18;;;;;;;3.22;0.95;;;;;;;9.46;100.00;99683.06;10232467;28;20047;-84
2024/03/15 17:22:22;;;;;;;1.83;1.20;;;;;;;9.66;100.00;99680.47;10229311;28;20050;-80
2024/03/15 17:27:25;;;;;;;3.13;1.83;;;;;;;9.69;100.00;99672.13;10226705;28;20058;-84
2024/03/15 17:32:30;;;;;;;1.83;1.70;;;;;;;10.03;100.00;99656.56;10233108;28;20065;-80
2024/03/15 17:37:33;;;;;;;1.88;1.67;;;;;;;9.91;100.00;99661.22;10230047;28;20057;-82
2024/03/15 17:42:37;;;;;;;2.80;1.48;;;;;;;9.89;100.00;99676.59;10225615;28;20055;-82
2024/03/15 17:47:40;;;;;;;1.80;1.40;;;;;;;10.09;100.00;99679.31;10227188;28;20085;-84
2024/03/15 17:52:43;;;;;;;3.25;1.42;;;;;;;10.05;100.00;99696.69;10242250;28;20047;-80
2024/03/15 17:57:47;;;;;;;3.97;1.73;;;;;;;9.95;100.00;99699.34;10256103;28;20051;-80
2024/03/15 18:02:52;;;;;;;4.38;1.45;;;;;;;10.07;100.00;99710.84;10246261;28;20175;-80
2024/03/15 18:07:55;;;;;;;1.67;1.10;;;;;;;9.89;100.00;99714.16;10231359;28;20062;-79
2024/03/15 18:12:58;;;;;;;3.38;1.48;;;;;;;10.10;100.00;99714.06;10216156;28;20062;-81
2024/03/15 18:18:02;;;;;;;3.10;1.50;;;;;;;10.22;100.00;99727.38;10217926;28;20053;-82
2024/03/15 18:23:05;;;;;;;3.78;1.70;;;;;;;10.77;100.00;99728.56;10229579;28;20093;-80
2024/03/15 18:28:08;;;;;;;3.10;1.70;;;;;;;10.69;100.00;99731.09;10224001;28;20054;-81
2024/03/15 18:33:11;;;;;;;3.95;1.75;;;;;;;10.42;100.00;99734.47;10239248;28;20058;-82
2024/03/15 18:38:15;;;;;;;4.20;1.85;;;;;;;10.92;100.00;99734.38;10234020;28;20054;-83
2024/03/15 18:43:21;;;;;;;3.10;2.17;;;;;;;10.77;100.00;99717.81;10217409;28;20062;-83
2024/03/15 18:48:24;;;;;;;3.28;2.10;;;;;;;10.82;100.00;99737.03;10229850;28;20054;-85
2024/03/15 18:53:28;;;;;;;3.63;2.08;;;;;;;10.91;100.00;99739.88;10229857;28;20149;-82
2024/03/15 18:58:31;;;;;;;7.10;2.65;;;;;;;10.83;100.00;99736.06;10240859;28;20055;-83
2024/03/15 19:03:34;;;;;;;9.02;2.42;;;;;;;10.92;100.00;99739.75;10233198;28;20088;-81
2024/03/15 19:08:41;;;;;;;3.13;2.00;;;;;;;10.79;100.00;99745.38;10233300;28;20061;-81
2024/03/15 19:13:45;;;;;;;3.60;1.98;;;;;;;10.71;100.00;99744.41;10228771;28;20069;-83
2024/03/15 19:18:49;;;;;;;6.10;1.70;;;;;;;10.84;100.00;99740.44;10229896;28;20054;-83
2024/03/15 19:23:52;;;;;;;3.05;2.40;;;;;;;10.04;100.00;99741.47;10224817;28;20422;-82
2024/03/15 19:28:55;;;;;;;9.27;3.15;;;;;;;10.68;100.00;99745.53;10267351;28;20053;-83
2024/03/15 19:33:58;;;;;;;4.43;3.95;;;;;;;10.88;100.00;99734.78;10231775;28;20584;-82
2024/03/15 19:39:02;;;;;;;4.05;3.15;;;;;;;10.83;100.00;99733.38;10250653;28;20046;-82
2024/03/15 19:44:06;;;;;;;5.75;2.63;;;;;;;10.68;100.00;99733.94;10230662;28;20171;-82
2024/03/15 19:49:09;;;;;;;3.40;2.65;;;;;;;10.88;100.00;99732.94;10254285;28;20053;-82
2024/03/15 19:54:13;;;;;;;8.10;2.90;;;;;;;10.65;100.00;99745.81;10243287;28;20190;-82
2024/03/15 19:59:16;;;;;;;5.95;2.90;;;;;;;10.94;100.00;99740.47;10231362;28;20051;-83
2024/03/15 20:04:20;;;;;;;5.20;3.10;;;;;;;10.90;100.00;99743.56;10246976;28;20055;-82
2024/03/15 20:09:24;;;;;;;5.85;3.63;;;;;;;11.17;100.00;99751.78;10236993;28;20094;-81
2024/03/15 20:14:27;;;;;;;3.63;3.30;;;;;;;11.09;100.00;99753.44;10250195;28;20526;-81
2024/03/15 20:19:31;;;;;;;4.70;3.20;;;;;;;10.92;100.00;99752.34;10242620;28;20051;-80
2024/03/15 20:24:35;;;;;;;7.43;3.58;;;;;;;10.83;100.00;99759.38;10251171;28;21138;-84
2024/03/15 20:29:38;;;;;;;8.18;3.13;;;;;;;10.99;100.00;99758.81;10220497;28;20062;-81
2024/03/15 20:34:41;;;;;;;4.70;2.38;;;;;;;10.65;100.00;99761.94;10238069;28;20046;-82
2024/03/15 20:39:44;;;;;;;4.65;2.50;;;;;;;10.59;100.00;99778.59;10230753;28;20050;-81
2024/03/15 20:44:47;;;;;;;3.50;2.42;;;;;;;10.76;100.00;99764.47;10242625;28;20121;-82
2024/03/15 20:49:50;;;;;;;3.03;2.35;;;;;;;10.89;100.00;99768.72;10240772;28;20061;-81
2024/03/15 20:54:55;;;;;;;4.78;3.10;;;;;;;10.77;100.00;99770.69;10226412;28;20079;-81
2024/03/15 20:59:58;;;;;;;5.80;2.28;;;;;;;10.80;100.00;99770.41;10245343;28;20049;-81
2024/03/15 21:05:01;;;;;;;4.78;2.70;;;;;;;11.05;100.00;99772.56;10228184;28;20545;-81
2024/03/15 21:10:05;;;;;;;6.60;2.53;;;;;;;11.07;99.93;99772.41;10244645;28;20046;-82
2024/03/15 21:15:09;;;;;;;4.05;2.55;;;;;;;11.02;98.51;99775.50;10249458;28;20050;-81
2024/03/15 21:20:15;;;;;;;5.07;2.80;;;;;;;10.93;99.72;99772.81;10227283;28;20065;-82
2024/03/15 21:25:18;;;;;;;4.28;2.30;;;;;;;10.67;99.58;99762.66;10257869;28;20055;-80
2024/03/15 21:30:22;;;;;;;3.47;2.70;;;;;;;10.82;99.50;99765.75;10240100;28;20066;-82
2024/03/15 21:35:26;;;;;;;4.35;2.15;;;;;;;10.52;100.00;99780.97;10220210;28;20054;-81
2024/03/15 21:40:30;;;;;;;6.25;3.30;;;;;;;10.15;100.00;99772.72;10237565;28;20050;-84
2024/03/15 21:45:33;;;;;;;8.57;3.38;;;;;;;10.64;100.00;99770.13;10224974;28;21035;-81
2024/03/15 21:50:37;;;;;;;5.22;2.90;;;;;;;10.51;100.00;99776.63;10222747;28;20047;-81
2024/03/15 21:55:42;;;;;;;6.93;3.00;;;;;;;10.52;100.00;99785.50;10226707;28;20082;-82
2024/03/15 22:00:46;;;;;;;3.97;2.50;;;;;;;10.47;100.00;99795.81;10241663;28;20050;-82
2024/03/15 22:05:50;;;;;;;5.45;2.97;;;;;;;10.48;99.74;99784.94;10244516;28;20042;-86
2024/03/15 22:10:54;;;;;;;9.52;3.50;;;;;;;10.52;99.47;99782.81;10264451;28;20051;-84
2024/03/15 22:15:57;;;;;;;7.25;2.95;;;;;;;10.68;96.82;99780.44;10274239;28;20043;-84
2024/03/15 22:21:00;;;;;;;6.25;2.40;;;;;;;10.23;97.98;99778.25;10257849;28;20051;-85
2024/03/15 22:26:04;;;;;;;8.95;3.65;;;;;;;10.23;99.17;99786.31;10264534;28;20042;-86
2024/03/15 22:31:07;;;;;;;9.05;3.05;;;;;;;10.41;96.85;99774.91;10261738;28;20073;-83
2024/03/15 22:36:10;;;;;;;7.68;2.25;;;;;;;9.99;99.65;99786.63;10265341;28;20050;-84
2024/03/15 22:41:13;;;;;;;7.10;3.08;;;;;;;10.14;97.78;99795.16;10279545;28;20055;-81
2024/03/15 22:46:17;;;;;;;4.97;2.55;;;;;;;10.11;97.21;99800.78;10263569;28;20051;-82
2024/03/15 22:51:20;;;;;;;5.22;2.80;;;;;;;9.97;98.92;99799.34;10273782;28;20426;-82
2024/03/15 22:56:23;;;;;;;6.72;2.60;;;;;;;10.00;97.88;99804.41;10268638;28;20827;-85
2024/03/15 23:01:26;;;;;;;7.68;3.20;;;;;;;9.85;99.91;99801.22;10281830;28;20046;-83
2024/03/15 23:06:31;;;;;;;8.15;2.85;;;;;;;9.94;97.95;99811.19;10294852;28;20101;-83
2024/03/15 23:11:35;;;;;;;6.07;2.47;;;;;;;10.01;98.07;99799.91;10277003;28;20073;-83
2024/03/15 23:16:38;;;;;;;5.68;2.55;;;;;;;10.07;97.60;99802.06;10280322;28;20039;-83
2024/03/15 23:21:41;;;;;;;6.13;2.88;;;;;;;9.91;98.43;99806.09;10274431;28;20110;-85
2024/03/15 23:26:44;;;;;;;10.75;4.45;;;;;;;10.26;96.46;99812.88;10282553;28;20181;-84